Time;durP1;ratioP1;P1;durP2;ratioP2;P2;SDS_P1;SDS_P2;PMS_P1;PMS_P2;Temp;Humidity;BMP_temperature;BMP_pressure;BME280_temperature;BME280_humidity;BME280_pressure;Samples;Min_cycle;Max_cycle;Signal;HPM_P1;HPM_P2
2021/04/18 00:00:27;;;;;;;;;;;;;;;;;;5072445;28;20033;-79
2021/04/18 00:02:53;;;;;;;;;;;;;;;;;;5038918;28;19977;-79
2021/04/18 00:05:22;;;;;;;;;;;;;;;;;;5055428;28;19919;-79
2021/04/18 00:07:48;;;;;;;;;;;;;;;;;;5072595;28;20610;-79
2021/04/18 00:10:13;;;;;;;;;;;;;;;;;;5072399;28;20035;-79
2021/04/18 00:12:38;;;;;;;;;;;;;;;;;;5072687;28;20396;-79
2021/04/18 00:15:07;;;;;;;;;;;;;;;;;;5072423;28;19919;-79
2021/04/18 00:17:32;;;;;;;;;;;;;;;;;;5075754;28;19927;-79
2021/04/18 00:19:58;;;;;;;;;;;;;;;;;;5084231;28;20281;-79
2021/04/18 00:22:23;;;;;;;;;;;;;;;;;;5075630;28;19912;-79
2021/04/18 00:24:48;;;;;;;;;;;;;;;;;;5075680;28;19959;-79
2021/04/18 00:27:14;;;;;;;;;;;;;;;;;;5074792;28;19999;-79
2021/04/18 00:29:39;;;;;;;;;;;;;;;;;;5075687;28;19959;-79
2021/04/18 00:32:05;;;;;;;;;;;;;;;;;;5058417;28;19923;-79
2021/04/18 00:34:30;;;;;;;;;;;;;;;;;;5074578;28;19966;-79
2021/04/18 00:36:55;;;;;;;;;;;;;;;;;;5059002;28;19919;-79
2021/04/18 00:39:20;;;;;;;;;;;;;;;;;;5075751;28;19912;-79
2021/04/18 00:41:47;;;;;;;;;;;;;;;;;;5074716;28;19964;-79
2021/04/18 00:44:12;;;;;;;;;;;;;;;;;;5093109;28;19920;-79
2021/04/18 00:46:38;;;;;;;;;;;;;;;;;;5058027;28;19949;-79
2021/04/18 00:49:03;;;;;;;;;;;;;;;;;;5075101;28;19927;-79
2021/04/18 00:51:28;;;;;;;;;;;;;;;;;;5058459;28;20410;-79
2021/04/18 00:53:54;;;;;;;;;;;;;;;;;;5075240;28;20425;-79
2021/04/18 00:56:19;;;;;;;;;;;;;;;;;;5058869;28;19916;-79
2021/04/18 00:58:44;;;;;;;;;;;;;;;;;;5073990;28;19916;-79
2021/04/18 01:01:10;;;;;;;;;;;;;;;;;;5075030;28;19932;-79
2021/04/18 01:03:35;;;;;;;;;;;;;;;;;;5075363;28;19920;-79
2021/04/18 01:06:00;;;;;;;;;;;;;;;;;;5058138;28;20372;-79
2021/04/18 01:08:26;;;;;;;;;;;;;;;;;;5074892;28;19919;-79
2021/04/18 01:10:51;;;;;;;;;;;;;;;;;;5074474;28;19993;-79
2021/04/18 01:13:16;;;;;;;;;;;;;;;;;;5073793;28;19923;-79
2021/04/18 01:15:41;;;;;;;;;;;;;;;;;;5074645;28;19920;-79
2021/04/18 01:18:07;;;;;;;;;;;;;;;;;;5075037;28;19978;-79
2021/04/18 01:20:32;;;;;;;;;;;;;;;;;;5074284;28;19923;-79
2021/04/18 01:22:57;;;;;;;;;;;;;;;;;;5058043;28;19920;-79
2021/04/18 01:25:23;;;;;;;;;;;;;;;;;;5074521;28;19943;-79
2021/04/18 01:27:49;;;;;;;;;;;;;;;;;;5074238;28;20542;-79
2021/04/18 01:30:16;;;;;;;;;;;;;;;;;;5074702;28;19919;-79
2021/04/18 01:32:43;;;;;;;;;;;;;;;;;;5074157;28;19920;-79
2021/04/18 01:35:08;;;;;;;;;;;;;;;;;;5073652;28;19928;-79
2021/04/18 01:37:34;;;;;;;;;;;;;;;;;;5057678;28;19919;-79
2021/04/18 01:39:59;;;;;;;;;;;;;;;;;;5073553;28;20002;-79
2021/04/18 01:42:24;;;;;;;;;;;;;;;;;;5057140;28;19919;-79
2021/04/18 01:44:50;;;;;;;;;;;;;;;;;;5074564;28;20385;-79
2021/04/18 01:47:15;;;;;;;;;;;;;;;;;;5073679;28;19916;-79
2021/04/18 01:49:40;;;;;;;;;;;;;;;;;;5074128;28;20262;-79
2021/04/18 01:52:06;;;;;;;;;;;;;;;;;;5073064;28;19923;-79
2021/04/18 01:54:31;;;;;;;;;;;;;;;;;;5074088;28;20006;-79
2021/04/18 01:56:56;;;;;;;;;;;;;;;;;;5073242;28;20296;-79
2021/04/18 01:59:21;;;;;;;;;;;;;;;;;;5073689;28;19916;-80
2021/04/18 02:01:47;;;;;;;;;;;;;;;;;;5056417;28;19928;-79
2021/04/18 02:04:19;;;;;;;;;;;;;;;;;;5073448;28;19930;-79
2021/04/18 02:06:44;;;;;;;;;;;;;;;;;;5056322;28;19916;-79
2021/04/18 02:09:09;;;;;;;;;;;;;;;;;;5073639;28;20280;-79
2021/04/18 02:11:35;;;;;;;;;;;;;;;;;;5073230;28;19912;-79
2021/04/18 02:14:01;;;;;;;;;;;;;;;;;;5072700;28;19916;-79
2021/04/18 02:16:26;;;;;;;;;;;;;;;;;;5057156;28;20426;-79
2021/04/18 02:18:51;;;;;;;;;;;;;;;;;;5073588;28;19920;-79
2021/04/18 02:21:17;;;;;;;;;;;;;;;;;;5073702;28;20027;-79
2021/04/18 02:23:42;;;;;;;;;;;;;;;;;;5073112;28;20317;-80
2021/04/18 02:26:07;;;;;;;;;;;;;;;;;;5056291;28;19920;-79
2021/04/18 02:28:32;;;;;;;;;;;;;;;;;;5090023;28;19989;-79
2021/04/18 02:30:58;;;;;;;;;;;;;;;;;;5072629;28;19911;-79
2021/04/18 02:33:23;;;;;;;;;;;;;;;;;;5072643;28;19920;-80
2021/04/18 02:35:48;;;;;;;;;;;;;;;;;;5072790;28;19929;-80
2021/04/18 02:38:14;;;;;;;;;;;;;;;;;;5072589;28;19965;-80
2021/04/18 02:40:40;;;;;;;;;;;;;;;;;;5073138;28;19931;-80
2021/04/18 02:43:05;;;;;;;;;;;;;;;;;;5073176;28;19930;-80
2021/04/18 02:45:31;;;;;;;;;;;;;;;;;;5057095;28;20010;-79
2021/04/18 02:47:56;;;;;;;;;;;;;;;;;;5090746;28;19912;-79
2021/04/18 02:50:21;;;;;;;;;;;;;;;;;;5073419;28;19917;-80
2021/04/18 02:52:46;;;;;;;;;;;;;;;;;;5072548;28;19917;-80
2021/04/18 02:55:12;;;;;;;;;;;;;;;;;;5071778;28;19931;-79
2021/04/18 02:57:37;;;;;;;;;;;;;;;;;;5055976;28;19962;-79
2021/04/18 03:00:03;;;;;;;;;;;;;;;;;;5072728;28;19920;-79
2021/04/18 03:02:28;;;;;;;;;;;;;;;;;;5072490;28;19931;-79
2021/04/18 03:04:57;;;;;;;;;;;;;;;;;;5073033;28;19920;-79
2021/04/18 03:07:22;;;;;;;;;;;;;;;;;;5072528;28;19922;-80
2021/04/18 03:09:47;;;;;;;;;;;;;;;;;;5073182;28;20015;-79
2021/04/18 03:12:13;;;;;;;;;;;;;;;;;;5055066;28;19966;-78
2021/04/18 03:14:38;;;;;;;;;;;;;;;;;;5072773;28;19916;-78
2021/04/18 03:17:03;;;;;;;;;;;;;;;;;;5073465;28;20044;-79
2021/04/18 03:19:29;;;;;;;;;;;;;;;;;;5073019;28;19919;-79
2021/04/18 03:21:54;;;;;;;;;;;;;;;;;;5079962;28;19927;-79
2021/04/18 03:24:19;;;;;;;;;;;;;;;;;;5073496;28;20498;-79
2021/04/18 03:26:45;;;;;;;;;;;;;;;;;;5071912;28;19920;-79
2021/04/18 03:29:10;;;;;;;;;;;;;;;;;;5072953;28;20018;-79
2021/04/18 03:31:35;;;;;;;;;;;;;;;;;;5072506;28;20332;-79
2021/04/18 03:34:00;;;;;;;;;;;;;;;;;;5072748;28;19920;-80
2021/04/18 03:36:26;;;;;;;;;;;;;;;;;;5054859;28;19912;-79
2021/04/18 03:38:51;;;;;;;;;;;;;;;;;;5072503;28;19927;-79
2021/04/18 03:41:16;;;;;;;;;;;;;;;;;;5070356;28;19968;-79
2021/04/18 03:43:42;;;;;;;;;;;;;;;;;;5055615;28;19923;-79
2021/04/18 03:46:07;;;;;;;;;;;;;;;;;;5072672;28;19972;-79
2021/04/18 03:48:32;;;;;;;;;;;;;;;;;;5071566;28;20044;-79
2021/04/18 03:50:58;;;;;;;;;;;;;;;;;;5058305;28;19942;-79
2021/04/18 03:53:23;;;;;;;;;;;;;;;;;;5075145;28;20277;-79
2021/04/18 03:55:48;;;;;;;;;;;;;;;;;;5075963;28;19920;-79
2021/04/18 03:58:14;;;;;;;;;;;;;;;;;;5075778;28;20351;-79
2021/04/18 04:00:39;;;;;;;;;;;;;;;;;;5075713;28;19916;-79
2021/04/18 04:03:04;;;;;;;;;;;;;;;;;;5075847;28;19916;-79
2021/04/18 04:05:29;;;;;;;;;;;;;;;;;;5074746;28;19916;-80
2021/04/18 04:07:55;;;;;;;;;;;;;;;;;;5075978;28;19935;-79
2021/04/18 04:10:20;;;;;;;;;;;;;;;;;;5075896;28;19912;-79
2021/04/18 04:12:45;;;;;;;;;;;;;;;;;;5075063;28;19916;-79
2021/04/18 04:15:11;;;;;;;;;;;;;;;;;;5075682;28;19961;-79
2021/04/18 04:17:36;;;;;;;;;;;;;;;;;;5075357;28;19912;-79
2021/04/18 04:20:02;;;;;;;;;;;;;;;;;;5075159;28;20595;-76
2021/04/18 04:22:27;;;;;;;;;;;;;;;;;;5058189;28;19920;-79
2021/04/18 04:24:52;;;;;;;;;;;;;;;;;;5058195;28;20040;-79
2021/04/18 04:27:21;;;;;;;;;;;;;;;;;;5074655;28;19927;-79
2021/04/18 04:29:47;;;;;;;;;;;;;;;;;;5075020;28;19916;-79
2021/04/18 04:32:12;;;;;;;;;;;;;;;;;;5075565;28;19973;-79
2021/04/18 04:34:37;;;;;;;;;;;;;;;;;;5074605;28;19936;-79
2021/04/18 04:37:03;;;;;;;;;;;;;;;;;;5075248;28;20023;-79
2021/04/18 04:39:28;;;;;;;;;;;;;;;;;;5074435;28;19920;-79
2021/04/18 04:41:53;;;;;;;;;;;;;;;;;;5059894;28;20319;-79
2021/04/18 04:44:18;;;;;;;;;;;;;;;;;;5075715;28;19919;-79
2021/04/18 04:46:44;;;;;;;;;;;;;;;;;;5075681;28;19931;-79
2021/04/18 04:49:09;;;;;;;;;;;;;;;;;;5066799;28;19994;-79
2021/04/18 04:51:35;;;;;;;;;;;;;;;;;;5075102;28;19919;-79
2021/04/18 04:54:00;;;;;;;;;;;;;;;;;;5058439;28;19916;-79
2021/04/18 04:56:25;;;;;;;;;;;;;;;;;;5058368;28;19962;-79
2021/04/18 04:58:51;;;;;;;;;;;;;;;;;;5091550;28;19923;-79
2021/04/18 05:01:16;;;;;;;;;;;;;;;;;;5057563;28;19916;-79
2021/04/18 05:03:41;;;;;;;;;;;;;;;;;;5074784;28;19927;-79
2021/04/18 05:06:06;;;;;;;;;;;;;;;;;;5074792;28;19919;-79
2021/04/18 05:08:32;;;;;;;;;;;;;;;;;;5083130;28;19920;-79
2021/04/18 05:10:57;;;;;;;;;;;;;;;;;;5074970;28;20003;-79
2021/04/18 05:13:22;;;;;;;;;;;;;;;;;;5056996;28;19931;-79
2021/04/18 05:15:48;;;;;;;;;;;;;;;;;;5073610;28;19964;-79
2021/04/18 05:18:13;;;;;;;;;;;;;;;;;;5073450;28;19912;-79
2021/04/18 05:20:38;;;;;;;;;;;;;;;;;;5057573;28;19959;-79
2021/04/18 05:23:04;;;;;;;;;;;;;;;;;;5090575;28;19966;-79
2021/04/18 05:25:29;;;;;;;;;;;;;;;;;;5057822;28;20433;-79
2021/04/18 05:27:54;;;;;;;;;;;;;;;;;;5073923;28;19916;-79
2021/04/18 05:30:20;;;;;;;;;;;;;;;;;;5073651;28;19916;-79
2021/04/18 05:32:45;;;;;;;;;;;;;;;;;;5048723;28;19924;-78
2021/04/18 05:35:11;;;;;;;;;;;;;;;;;;5074454;28;19945;-79
2021/04/18 05:37:36;;;;;;;;;;;;;;;;;;5074827;28;19912;-79
2021/04/18 05:40:17;;;;;;;;;;;;;;;;;;5074824;28;19916;-78
2021/04/18 05:42:42;;;;;;;;;;;;;;;;;;5073951;28;19925;-78
2021/04/18 05:45:08;;;;;;;;;;;;;;;;;;5074972;28;19931;-79
2021/04/18 05:47:36;;;;;;;;;;;;;;;;;;5079725;28;19919;-79
2021/04/18 05:50:02;;;;;;;;;;;;;;;;;;5074101;28;20280;-79
2021/04/18 05:52:28;;;;;;;;;;;;;;;;;;5073294;28;19931;-79
2021/04/18 05:54:53;;;;;;;;;;;;;;;;;;5073807;28;19923;-79
2021/04/18 05:57:19;;;;;;;;;;;;;;;;;;5056662;28;20404;-79
2021/04/18 05:59:44;;;;;;;;;;;;;;;;;;5074026;28;19912;-80
2021/04/18 06:02:11;;;;;;;;;;;;;;;;;;5056953;28;20007;-79
2021/04/18 06:04:36;;;;;;;;;;;;;;;;;;5073375;28;19944;-78
2021/04/18 06:07:02;;;;;;;;;;;;;;;;;;5074096;28;20360;-79
2021/04/18 06:09:28;;;;;;;;;;;;;;;;;;5072517;28;19916;-80
2021/04/18 06:11:53;;;;;;;;;;;;;;;;;;5071680;28;19927;-79
2021/04/18 06:14:18;;;;;;;;;;;;;;;;;;5070060;28;20431;-79
2021/04/18 06:16:43;;;;;;;;;;;;;;;;;;5071786;28;19919;-79
2021/04/18 06:19:09;;;;;;;;;;;;;;;;;;5081046;28;19967;-79
2021/04/18 06:21:34;;;;;;;;;;;;;;;;;;5071900;28;19916;-78
2021/04/18 06:23:59;;;;;;;;;;;;;;;;;;5073646;28;19947;-78
2021/04/18 06:26:25;;;;;;;;;;;;;;;;;;5056844;28;20384;-77
2021/04/18 06:28:50;;;;;;;;;;;;;;;;;;5057445;28;20014;-78
2021/04/18 06:31:16;;;;;;;;;;;;;;;;;;5073290;28;19920;-77
2021/04/18 06:33:41;;;;;;;;;;;;;;;;;;5073375;28;20484;-78
2021/04/18 06:36:06;;;;;;;;;;;;;;;;;;5073905;28;19919;-78
2021/04/18 06:38:32;;;;;;;;;;;;;;;;;;5073519;28;20015;-78
2021/04/18 06:40:57;;;;;;;;;;;;;;;;;;5056507;28;19920;-78
2021/04/18 06:43:23;;;;;;;;;;;;;;;;;;5073579;28;19931;-78
2021/04/18 06:45:49;;;;;;;;;;;;;;;;;;5056260;28;19967;-78
2021/04/18 06:48:14;;;;;;;;;;;;;;;;;;5073209;28;19912;-77
2021/04/18 06:50:40;;;;;;;;;;;;;;;;;;5072806;28;19916;-78
2021/04/18 06:53:05;;;;;;;;;;;;;;;;;;5056302;28;19916;-78
2021/04/18 06:55:31;;;;;;;;;;;;;;;;;;5071424;28;19912;-78
2021/04/18 06:57:56;;;;;;;;;;;;;;;;;;5056618;28;19953;-78
2021/04/18 07:00:22;;;;;;;;;;;;;;;;;;5071570;28;20034;-77
2021/04/18 07:02:47;;;;;;;;;;;;;;;;;;5072377;28;19912;-77
2021/04/18 07:05:13;;;;;;;;;;;;;;;;;;5072383;28;19916;-78
2021/04/18 07:07:39;;;;;;;;;;;;;;;;;;5064370;28;20010;-78
2021/04/18 07:10:05;;;;;;;;;;;;;;;;;;5072871;28;20002;-78
2021/04/18 07:12:31;;;;;;;;;;;;;;;;;;5064410;28;20393;-78
2021/04/18 07:14:57;;;;;;;;;;;;;;;;;;5072741;28;19916;-78
2021/04/18 07:17:22;;;;;;;;;;;;;;;;;;5072892;28;20437;-78
2021/04/18 07:19:49;;;;;;;;;;;;;;;;;;5073402;28;19989;-78
2021/04/18 07:22:15;;;;;;;;;;;;;;;;;;5072432;28;19958;-78
2021/04/18 07:24:48;;;;;;;;;;;;;;;;;;5073699;28;19955;-78
2021/04/18 07:27:14;;;;;;;;;;;;;;;;;;5059343;28;20011;-78
2021/04/18 07:29:39;;;;;;;;;;;;;;;;;;5060252;28;20338;-78
2021/04/18 07:32:18;;;;;;;;;;;;;;;;;;5092762;28;19920;-78
2021/04/18 07:34:43;;;;;;;;;;;;;;;;;;5076461;28;20719;-77
2021/04/18 07:37:10;;;;;;;;;;;;;;;;;;5076458;28;20007;-78
2021/04/18 07:39:57;;;;;;;;;;;;;;;;;;5076752;28;19922;-78
2021/04/18 07:42:26;;;;;;;;;;;;;;;;;;5076904;28;20305;-78
2021/04/18 07:44:53;;;;;;;;;;;;;;;;;;5076349;28;20309;-78
2021/04/18 07:47:18;;;;;;;;;;;;;;;;;;5059930;28;19920;-78
2021/04/18 07:49:44;;;;;;;;;;;;;;;;;;5076223;28;19912;-78
2021/04/18 07:52:09;;;;;;;;;;;;;;;;;;5059451;28;19912;-78
2021/04/18 07:54:34;;;;;;;;;;;;;;;;;;5075847;28;20309;-78
2021/04/18 07:57:00;;;;;;;;;;;;;;;;;;5060117;28;19916;-79
2021/04/18 07:59:25;;;;;;;;;;;;;;;;;;5076362;28;19935;-79
2021/04/18 08:01:51;;;;;;;;;;;;;;;;;;5076392;28;19962;-79
2021/04/18 08:04:16;;;;;;;;;;;;;;;;;;5076203;28;20346;-80
2021/04/18 08:06:41;;;;;;;;;;;;;;;;;;5076338;28;19973;-78
2021/04/18 08:09:17;;;;;;;;;;;;;;;;;;5076178;28;19912;-79
2021/04/18 08:11:43;;;;;;;;;;;;;;;;;;5075422;28;19916;-79
2021/04/18 08:14:15;;;;;;;;;;;;;;;;;;5075779;28;19985;-78
2021/04/18 08:16:40;;;;;;;;;;;;;;;;;;5076096;28;19920;-81
2021/04/18 08:19:07;;;;;;;;;;;;;;;;;;5058734;28;19969;-80
2021/04/18 08:21:43;;;;;;;;;;;;;;;;;;5076178;28;19974;-79
2021/04/18 08:24:28;;;;;;;;;;;;;;;;;;5076210;28;19930;-80
2021/04/18 08:27:03;;;;;;;;;;;;;;;;;;5074484;28;20015;-80
2021/04/18 08:29:28;;;;;;;;;;;;;;;;;;5076240;28;19931;-79
2021/04/18 08:31:55;;;;;;;;;;;;;;;;;;5059155;28;19911;-79
2021/04/18 08:34:26;;;;;;;;;;;;;;;;;;5075523;28;20403;-80
2021/04/18 08:36:53;;;;;;;;;;;;;;;;;;5091292;28;20323;-80
2021/04/18 08:39:31;;;;;;;;;;;;;;;;;;5074291;28;19928;-80
2021/04/18 08:41:57;;;;;;;;;;;;;;;;;;5073783;28;19924;-81
2021/04/18 08:44:30;;;;;;;;;;;;;;;;;;5057265;28;19924;-82
2021/04/18 08:47:00;;;;;;;;;;;;;;;;;;5058759;28;19912;-84
2021/04/18 08:49:27;;;;;;;;;;;;;;;;;;5058447;28;19915;-81
2021/04/18 08:51:53;;;;;;;;;;;;;;;;;;5058672;28;19923;-81
2021/04/18 08:54:44;;;;;;;;;;;;;;;;;;5075836;28;19924;-82
2021/04/18 08:57:13;;;;;;;;;;;;;;;;;;5064331;28;20018;-82
2021/04/18 08:59:39;;;;;;;;;;;;;;;;;;5074704;28;20000;-81
2021/04/18 09:02:08;;;;;;;;;;;;;;;;;;5075377;28;19994;-81
2021/04/18 09:04:34;;;;;;;;;;;;;;;;;;5074181;28;19920;-80
2021/04/18 09:07:00;;;;;;;;;;;;;;;;;;5075195;28;19916;-81
2021/04/18 09:09:25;;;;;;;;;;;;;;;;;;5057566;28;19919;-80
2021/04/18 09:11:51;;;;;;;;;;;;;;;;;;5057600;28;19919;-80
2021/04/18 09:14:17;;;;;;;;;;;;;;;;;;5058363;28;20328;-80
2021/04/18 09:16:42;;;;;;;;;;;;;;;;;;5058468;28;20305;-82
2021/04/18 09:19:37;;;;;;;;;;;;;;;;;;5083707;28;19934;-84
2021/04/18 09:22:06;;;;;;;;;;;;;;;;;;5070225;28;19951;-81
2021/04/18 09:24:32;;;;;;;;;;;;;;;;;;5057502;28;19920;-82
2021/04/18 09:26:58;;;;;;;;;;;;;;;;;;5074794;28;19916;-80
2021/04/18 09:29:23;;;;;;;;;;;;;;;;;;5074342;28;19920;-81
2021/04/18 09:31:55;;;;;;;;;;;;;;;;;;5074660;28;19916;-79
2021/04/18 09:34:21;;;;;;;;;;;;;;;;;;5074646;28;20004;-79
2021/04/18 09:36:47;;;;;;;;;;;;;;;;;;5074692;28;19974;-79
2021/04/18 09:39:12;;;;;;;;;;;;;;;;;;5072423;28;19929;-78
2021/04/18 09:41:37;;;;;;;;;;;;;;;;;;5074257;28;19931;-78
2021/04/18 09:44:03;;;;;;;;;;;;;;;;;;5074799;28;19924;-79
2021/04/18 09:46:28;;;;;;;;;;;;;;;;;;5073757;28;20369;-80
2021/04/18 09:49:00;;;;;;;;;;;;;;;;;;5074497;28;19920;-79
2021/04/18 09:51:25;;;;;;;;;;;;;;;;;;5074131;28;19916;-78
2021/04/18 09:54:02;;;;;;;;;;;;;;;;;;5073620;28;20289;-78
2021/04/18 09:56:27;;;;;;;;;;;;;;;;;;5073957;28;20281;-78
2021/04/18 09:58:52;;;;;;;;;;;;;;;;;;5057687;28;20007;-78
2021/04/18 10:01:24;;;;;;;;;;;;;;;;;;5073850;28;19924;-79
2021/04/18 10:03:50;;;;;;;;;;;;;;;;;;5056213;28;19916;-79
2021/04/18 10:06:15;;;;;;;;;;;;;;;;;;5073737;28;19935;-79
2021/04/18 10:08:40;;;;;;;;;;;;;;;;;;5073690;28;19970;-78
2021/04/18 10:11:06;;;;;;;;;;;;;;;;;;5071933;28;19916;-78
2021/04/18 10:13:43;;;;;;;;;;;;;;;;;;5091057;28;19999;-79
2021/04/18 10:16:09;;;;;;;;;;;;;;;;;;5097731;28;19985;-79
2021/04/18 10:18:36;;;;;;;;;;;;;;;;;;5056901;28;20386;-79
2021/04/18 10:21:21;;;;;;;;;;;;;;;;;;5056651;28;19941;-78
2021/04/18 10:23:53;;;;;;;;;;;;;;;;;;5074959;28;19931;-80
2021/04/18 10:26:22;;;;;;;;;;;;;;;;;;5071708;28;19916;-80
2021/04/18 10:28:47;;;;;;;;;;;;;;;;;;5074059;28;19916;-79
2021/04/18 10:31:16;;;;;;;;;;;;;;;;;;5073116;28;20446;-79
2021/04/18 10:33:42;;;;;;;;;;;;;;;;;;5072808;28;20281;-79
2021/04/18 10:36:08;;;;;;;;;;;;;;;;;;5072766;28;19927;-79
2021/04/18 10:38:34;;;;;;;;;;;;;;;;;;5073242;28;19912;-80
2021/04/18 10:40:59;;;;;;;;;;;;;;;;;;5072513;28;20016;-80
2021/04/18 10:43:24;;;;;;;;;;;;;;;;;;5056293;28;19935;-81
2021/04/18 10:45:49;;;;;;;;;;;;;;;;;;5073797;28;19923;-79
2021/04/18 10:48:15;;;;;;;;;;;;;;;;;;5073773;28;19919;-79
2021/04/18 10:50:41;;;;;;;;;;;;;;;;;;5073278;28;19923;-79
2021/04/18 10:53:06;;;;;;;;;;;;;;;;;;5072891;28;20046;-79
2021/04/18 10:55:33;;;;;;;;;;;;;;;;;;5073707;28;19987;-79
2021/04/18 10:57:58;;;;;;;;;;;;;;;;;;5072751;28;19920;-79
2021/04/18 11:00:23;;;;;;;;;;;;;;;;;;5055903;28;19914;-79
2021/04/18 11:02:48;;;;;;;;;;;;;;;;;;5056063;28;20399;-78
2021/04/18 11:05:14;;;;;;;;;;;;;;;;;;5073387;28;20262;-79
2021/04/18 11:07:39;;;;;;;;;;;;;;;;;;5073057;28;19912;-79
2021/04/18 11:10:05;;;;;;;;;;;;;;;;;;5073050;28;19955;-78
2021/04/18 11:12:30;;;;;;;;;;;;;;;;;;5072861;28;20369;-79
2021/04/18 11:14:56;;;;;;;;;;;;;;;;;;5089853;28;19916;-79
2021/04/18 11:17:21;;;;;;;;;;;;;;;;;;5073232;28;19966;-79
2021/04/18 11:19:46;;;;;;;;;;;;;;;;;;5056468;28;20288;-79
2021/04/18 11:22:12;;;;;;;;;;;;;;;;;;5072910;28;19955;-78
2021/04/18 11:24:37;;;;;;;;;;;;;;;;;;5073052;28;20003;-78
2021/04/18 11:27:02;;;;;;;;;;;;;;;;;;5055687;28;20026;-79
2021/04/18 11:29:28;;;;;;;;;;;;;;;;;;5073655;28;20350;-79
2021/04/18 11:31:54;;;;;;;;;;;;;;;;;;5072194;28;19931;-79
2021/04/18 11:34:19;;;;;;;;;;;;;;;;;;5072667;28;19912;-78
2021/04/18 11:36:45;;;;;;;;;;;;;;;;;;5072749;28;19916;-78
2021/04/18 11:39:10;;;;;;;;;;;;;;;;;;5072805;28;19962;-79
2021/04/18 11:41:35;;;;;;;;;;;;;;;;;;5072690;28;19919;-78
2021/04/18 11:44:01;;;;;;;;;;;;;;;;;;5072878;28;19947;-79
2021/04/18 11:46:26;;;;;;;;;;;;;;;;;;5072646;28;19923;-78
2021/04/18 11:48:52;;;;;;;;;;;;;;;;;;5072052;28;20413;-78
2021/04/18 11:51:18;;;;;;;;;;;;;;;;;;5071459;28;19924;-78
2021/04/18 11:53:43;;;;;;;;;;;;;;;;;;5071573;28;19939;-77
2021/04/18 11:56:08;;;;;;;;;;;;;;;;;;5072337;28;19919;-77
2021/04/18 11:58:33;;;;;;;;;;;;;;;;;;5072892;28;20112;-78
2021/04/18 12:00:59;;;;;;;;;;;;;;;;;;5070323;28;19974;-78
2021/04/18 12:03:24;;;;;;;;;;;;;;;;;;5070006;28;19916;-80
2021/04/18 12:05:53;;;;;;;;;;;;;;;;;;5069579;28;19920;-79
2021/04/18 12:08:18;;;;;;;;;;;;;;;;;;5072370;28;20565;-78
2021/04/18 12:10:43;;;;;;;;;;;;;;;;;;5073811;28;19917;-79
2021/04/18 12:13:09;;;;;;;;;;;;;;;;;;5075879;28;19912;-77
2021/04/18 12:15:34;;;;;;;;;;;;;;;;;;5059503;28;19963;-78
2021/04/18 12:17:59;;;;;;;;;;;;;;;;;;5059454;28;19912;-78
2021/04/18 12:20:25;;;;;;;;;;;;;;;;;;5075760;28;19916;-79
2021/04/18 12:22:50;;;;;;;;;;;;;;;;;;5057849;28;19966;-78
2021/04/18 12:25:15;;;;;;;;;;;;;;;;;;5058820;28;19912;-78
2021/04/18 12:27:41;;;;;;;;;;;;;;;;;;5075633;28;19955;-79
2021/04/18 12:30:06;;;;;;;;;;;;;;;;;;5076057;28;19912;-78
2021/04/18 12:32:32;;;;;;;;;;;;;;;;;;5075450;28;19912;-78
2021/04/18 12:34:58;;;;;;;;;;;;;;;;;;5075008;28;19916;-79
2021/04/18 12:37:23;;;;;;;;;;;;;;;;;;5075388;28;19967;-78
2021/04/18 12:39:49;;;;;;;;;;;;;;;;;;5058824;28;20389;-79
2021/04/18 12:42:14;;;;;;;;;;;;;;;;;;5075593;28;19916;-78
2021/04/18 12:44:40;;;;;;;;;;;;;;;;;;5075494;28;19921;-78
2021/04/18 12:47:09;;;;;;;;;;;;;;;;;;5074431;28;19916;-79
2021/04/18 12:49:34;;;;;;;;;;;;;;;;;;5074602;28;19919;-78
2021/04/18 12:52:00;;;;;;;;;;;;;;;;;;5075003;28;19912;-80
2021/04/18 12:54:26;;;;;;;;;;;;;;;;;;5075390;28;19913;-78
2021/04/18 12:56:54;;;;;;;;;;;;;;;;;;5074036;28;19916;-79
2021/04/18 12:59:19;;;;;;;;;;;;;;;;;;5073849;28;19912;-78
2021/04/18 13:01:44;;;;;;;;;;;;;;;;;;5056930;28;19919;-79
2021/04/18 13:04:10;;;;;;;;;;;;;;;;;;5075384;28;19921;-78
2021/04/18 13:06:35;;;;;;;;;;;;;;;;;;5058127;28;20002;-78
2021/04/18 13:09:00;;;;;;;;;;;;;;;;;;5093437;28;19912;-78
2021/04/18 13:11:26;;;;;;;;;;;;;;;;;;5075094;28;19912;-79
2021/04/18 13:13:51;;;;;;;;;;;;;;;;;;5075002;28;20023;-79
2021/04/18 13:16:16;;;;;;;;;;;;;;;;;;5074016;28;19924;-79
2021/04/18 13:18:42;;;;;;;;;;;;;;;;;;5074814;28;19926;-79
2021/04/18 13:21:07;;;;;;;;;;;;;;;;;;5075085;28;19947;-78
2021/04/18 13:23:32;;;;;;;;;;;;;;;;;;5074453;28;19962;-79
2021/04/18 13:25:57;;;;;;;;;;;;;;;;;;5058051;28;20350;-79
2021/04/18 13:28:23;;;;;;;;;;;;;;;;;;5074680;28;19920;-79
2021/04/18 13:30:48;;;;;;;;;;;;;;;;;;5073412;28;19973;-79
2021/04/18 13:33:14;;;;;;;;;;;;;;;;;;5073521;28;19963;-79
2021/04/18 13:35:40;;;;;;;;;;;;;;;;;;5072217;28;19912;-79
2021/04/18 13:38:06;;;;;;;;;;;;;;;;;;5073247;28;20022;-78
2021/04/18 13:40:31;;;;;;;;;;;;;;;;;;5056112;28;20437;-79
2021/04/18 13:42:57;;;;;;;;;;;;;;;;;;5073013;28;19920;-79
2021/04/18 13:45:22;;;;;;;;;;;;;;;;;;5072886;28;19920;-79
2021/04/18 13:47:47;;;;;;;;;;;;;;;;;;5057106;28;20305;-79
2021/04/18 13:50:14;;;;;;;;;;;;;;;;;;5074193;28;19923;-79
2021/04/18 13:52:40;;;;;;;;;;;;;;;;;;5074089;28;20324;-78
2021/04/18 13:55:05;;;;;;;;;;;;;;;;;;5074116;28;19916;-81
2021/04/18 13:57:31;;;;;;;;;;;;;;;;;;5057316;28;20397;-81
2021/04/18 13:59:57;;;;;;;;;;;;;;;;;;5074157;28;19912;-82
2021/04/18 14:02:23;;;;;;;;;;;;;;;;;;5055954;28;19923;-81
2021/04/18 14:04:49;;;;;;;;;;;;;;;;;;5069514;28;20392;-81
2021/04/18 14:07:14;;;;;;;;;;;;;;;;;;5054373;28;20384;-82
2021/04/18 14:09:39;;;;;;;;;;;;;;;;;;5056698;28;19912;-82
2021/04/18 14:12:05;;;;;;;;;;;;;;;;;;5073492;28;20061;-82
2021/04/18 14:14:30;;;;;;;;;;;;;;;;;;5056716;28;19939;-82
2021/04/18 14:16:55;;;;;;;;;;;;;;;;;;5073964;28;20372;-82
2021/04/18 14:19:20;;;;;;;;;;;;;;;;;;5074063;28;19951;-82
2021/04/18 14:21:46;;;;;;;;;;;;;;;;;;5057011;28;20266;-83
2021/04/18 14:24:12;;;;;;;;;;;;;;;;;;5073898;28;19957;-84
2021/04/18 14:26:37;;;;;;;;;;;;;;;;;;5073342;28;20006;-84
2021/04/18 14:29:02;;;;;;;;;;;;;;;;;;5073254;28;19916;-82
2021/04/18 14:31:27;;;;;;;;;;;;;;;;;;5056289;28;19927;-82
2021/04/18 14:33:53;;;;;;;;;;;;;;;;;;5072808;28;19931;-82
2021/04/18 14:36:18;;;;;;;;;;;;;;;;;;5056428;28;19923;-82
2021/04/18 14:38:46;;;;;;;;;;;;;;;;;;5072424;28;19920;-82
2021/04/18 14:41:11;;;;;;;;;;;;;;;;;;5055684;28;19981;-81
2021/04/18 14:43:36;;;;;;;;;;;;;;;;;;5072155;28;19916;-82
2021/04/18 14:46:02;;;;;;;;;;;;;;;;;;5073767;28;19951;-82
2021/04/18 14:48:27;;;;;;;;;;;;;;;;;;5073443;28;19916;-81
2021/04/18 14:50:53;;;;;;;;;;;;;;;;;;5073324;28;19931;-81
2021/04/18 14:53:18;;;;;;;;;;;;;;;;;;5072578;28;19924;-81
2021/04/18 14:55:44;;;;;;;;;;;;;;;;;;5072886;28;19915;-82
2021/04/18 14:58:10;;;;;;;;;;;;;;;;;;5072581;28;19912;-82
2021/04/18 15:00:35;;;;;;;;;;;;;;;;;;5073249;28;19908;-82
2021/04/18 15:03:01;;;;;;;;;;;;;;;;;;5073287;28;19912;-81
2021/04/18 15:05:26;;;;;;;;;;;;;;;;;;5055618;28;19958;-82
2021/04/18 15:07:53;;;;;;;;;;;;;;;;;;5056448;28;19920;-82
2021/04/18 15:10:19;;;;;;;;;;;;;;;;;;5072420;28;19920;-82
2021/04/18 15:12:44;;;;;;;;;;;;;;;;;;5072568;28;20377;-82
2021/04/18 15:15:09;;;;;;;;;;;;;;;;;;5056187;28;19965;-81
2021/04/18 15:17:35;;;;;;;;;;;;;;;;;;5073249;28;19919;-82
2021/04/18 15:20:00;;;;;;;;;;;;;;;;;;5072992;28;19913;-82
2021/04/18 15:22:25;;;;;;;;;;;;;;;;;;5055979;28;20357;-81
2021/04/18 15:24:51;;;;;;;;;;;;;;;;;;5072818;28;19916;-81
2021/04/18 15:27:16;;;;;;;;;;;;;;;;;;5072789;28;19912;-82
2021/04/18 15:29:42;;;;;;;;;;;;;;;;;;5056118;28;20328;-82
2021/04/18 15:32:13;;;;;;;;;;;;;;;;;;5071520;28;19916;-81
2021/04/18 15:34:38;;;;;;;;;;;;;;;;;;5079485;28;19974;-81
2021/04/18 15:37:03;;;;;;;;;;;;;;;;;;5072834;28;20009;-82
2021/04/18 15:39:29;;;;;;;;;;;;;;;;;;5072576;28;19920;-82
2021/04/18 15:41:54;;;;;;;;;;;;;;;;;;5055583;28;20263;-82
2021/04/18 15:44:19;;;;;;;;;;;;;;;;;;5056232;28;19916;-82
2021/04/18 15:46:45;;;;;;;;;;;;;;;;;;5075791;28;20433;-81
2021/04/18 15:49:10;;;;;;;;;;;;;;;;;;5076827;28;20429;-82
2021/04/18 15:51:35;;;;;;;;;;;;;;;;;;5076505;28;19919;-82
2021/04/18 15:54:01;;;;;;;;;;;;;;;;;;5076359;28;20327;-82
2021/04/18 15:56:26;;;;;;;;;;;;;;;;;;5049903;28;19965;-81
2021/04/18 15:58:51;;;;;;;;;;;;;;;;;;5075522;28;19912;-82
2021/04/18 16:01:20;;;;;;;;;;;;;;;;;;5076429;28;19912;-82
2021/04/18 16:03:45;;;;;;;;;;;;;;;;;;5059517;28;19999;-81
2021/04/18 16:06:10;;;;;;;;;;;;;;;;;;5076164;28;20007;-82
2021/04/18 16:08:36;;;;;;;;;;;;;;;;;;5058775;28;20381;-81
2021/04/18 16:11:01;;;;;;;;;;;;;;;;;;5075348;28;20003;-82
2021/04/18 16:13:26;;;;;;;;;;;;;;;;;;5076497;28;19969;-82
2021/04/18 16:15:55;;;;;;;;;;;;;;;;;;5076383;28;20377;-79
2021/04/18 16:18:20;;;;;;;;;;;;;;;;;;5075894;28;19912;-79
2021/04/18 16:20:47;;;;;;;;;;;;;;;;;;5076022;28;20398;-79
2021/04/18 16:23:13;;;;;;;;;;;;;;;;;;5076501;28;19939;-79
2021/04/18 16:25:38;;;;;;;;;;;;;;;;;;5075930;28;20377;-78
2021/04/18 16:28:03;;;;;;;;;;;;;;;;;;5073662;28;19955;-79
2021/04/18 16:30:31;;;;;;;;;;;;;;;;;;5075825;28;20003;-82
2021/04/18 16:32:57;;;;;;;;;;;;;;;;;;5074264;28;19919;-81
2021/04/18 16:35:23;;;;;;;;;;;;;;;;;;5058792;28;20015;-80
2021/04/18 16:37:48;;;;;;;;;;;;;;;;;;5057152;28;19924;-81